Time;durP1;ratioP1;P1;durP2;ratioP2;P2;SDS_P1;SDS_P2;PMS_P1;PMS_P2;Temp;Humidity;BMP_temperature;BMP_pressure;BME280_temperature;BME280_humidity;BME280_pressure;Samples;Min_cycle;Max_cycle;Signal;HPM_P1;HPM_P2
2022/06/01 00:00:34;;;;;;;;;;;;;;;-140.72;100.00;52628.28;4941391;29;20328;-71
2022/06/01 00:03:00;;;;;;;;;;;;;;;-140.72;100.00;52658.72;4945224;29;20255;-71
2022/06/01 00:05:25;;;;;;;;;;;;;;;-140.72;100.00;52666.84;4963633;29;19918;-71
2022/06/01 00:07:51;;;;;;;;;;;;;;;-140.72;100.00;52652.63;4961896;29;20005;-71
2022/06/01 00:10:16;;;;;;;;;;;;;;;-140.72;100.00;52646.53;4962691;29;19938;-72
2022/06/01 00:12:42;;;;;;;;;;;;;;;-140.72;100.00;52632.34;4962227;29;20060;-72
2022/06/01 00:15:08;;;;;;;;;;;;;;;-140.72;100.00;52616.09;4948854;29;20009;-72
2022/06/01 00:17:33;;;;;;;;;;;;;;;-140.72;100.00;52668.84;4946630;29;19918;-72
2022/06/01 00:19:59;;;;;;;;;;;;;;;-140.72;100.00;52638.41;4949463;29;20377;-72
2022/06/01 00:22:24;;;;;;;;;;;;;;;-140.72;100.00;52626.25;4966269;28;19926;-71
2022/06/01 00:24:50;;;;;;;;;;;;;;;-140.72;100.00;52624.22;4962190;28;19953;-71
2022/06/01 00:27:16;;;;;;;;;;;;;;;-140.72;100.00;52593.78;4968042;28;19949;-72
2022/06/01 00:29:41;;;;;;;;;;;;;;;-140.72;100.00;52664.81;4954851;28;19930;-73
2022/06/01 00:32:07;;;;;;;;;;;;;;;-140.72;100.00;52630.31;4971164;28;19971;-72
2022/06/01 00:34:33;;;;;;;;;;;;;;;-140.72;100.00;52622.19;4965074;28;21125;-71
2022/06/01 00:36:59;;;;;;;;;;;;;;;-140.72;100.00;52662.78;4956574;28;19919;-71
2022/06/01 00:39:24;;;;;;;;;;;;;;;-140.72;100.00;52674.94;4945197;28;19926;-72
2022/06/01 00:41:49;;;;;;;;;;;;;;;-140.72;100.00;52636.38;4955202;28;20385;-72
2022/06/01 00:44:15;;;;;;;;;;;;;;;-140.72;100.00;52656.69;4960005;28;19919;-72
2022/06/01 00:46:40;;;;;;;;;;;;;;;-140.72;100.00;52636.38;4950160;29;20326;-72
2022/06/01 00:49:24;;;;;;;;;;;;;;;-140.72;100.00;52626.25;4954541;29;19954;-71
2022/06/01 00:51:49;;;;;;;;;;;;;;;-140.72;100.00;52656.69;4947254;29;19926;-72
2022/06/01 00:54:15;;;;;;;;;;;;;;;-140.72;100.00;52650.59;4942206;28;19922;-71
2022/06/01 00:56:43;;;;;;;;;;;;;;;-140.72;100.00;52624.22;4944925;29;19919;-72
2022/06/01 00:59:10;;;;;;;;;;;;;;;-140.72;100.00;52636.38;4959750;28;19918;-72
2022/06/01 01:01:36;;;;;;;;;;;;;;;-140.72;100.00;52652.63;4956174;29;19923;-71
2022/06/01 01:04:03;;;;;;;;;;;;;;;-140.72;100.00;52670.88;4953947;28;19950;-71
2022/06/01 01:06:31;;;;;;;;;;;;;;;-140.72;100.00;52626.25;4957905;29;19915;-71
2022/06/01 01:08:58;;;;;;;;;;;;;;;-140.72;100.00;52644.50;4963635;28;19918;-71
2022/06/01 01:11:33;;;;;;;;;;;;;;;-140.72;100.00;52644.50;4958321;29;20261;-72
2022/06/01 01:13:59;;;;;;;;;;;;;;;-140.72;100.00;52646.53;4952210;29;19919;-72
2022/06/01 01:16:25;;;;;;;;;;;;;;;-140.72;100.00;52618.13;4961693;29;19967;-72
2022/06/01 01:18:54;;;;;;;;;;;;;;;-140.72;100.00;52654.66;4965529;29;19925;-71
2022/06/01 01:21:19;;;;;;;;;;;;;;;-140.72;100.00;52656.69;4957946;29;19919;-71
2022/06/01 01:23:49;;;;;;;;;;;;;;;-140.72;100.00;52618.13;4960514;29;19919;-71
2022/06/01 01:26:14;;;;;;;;;;;;;;;-140.72;100.00;52620.16;4959873;28;19919;-70
2022/06/01 01:28:40;;;;;;;;;;;;;;;-140.72;100.00;52632.34;4953997;29;20054;-71
2022/06/01 01:31:07;;;;;;;;;;;;;;;-140.72;100.00;52654.66;4961548;29;20321;-71
2022/06/01 01:33:33;;;;;;;;;;;;;;;-140.72;100.00;52622.19;4950689;29;19978;-71
2022/06/01 01:36:06;;;;;;;;;;;;;;;-140.72;100.00;52616.09;4939168;29;20112;-71
2022/06/01 01:38:36;;;;;;;;;;;;;;;-140.72;100.00;52660.75;4953929;29;19919;-71
2022/06/01 01:41:07;;;;;;;;;;;;;;;-140.72;100.00;52681.03;4961744;29;21097;-72
2022/06/01 01:43:36;;;;;;;;;;;;;;;-140.72;100.00;52634.38;4961015;29;19990;-71
2022/06/01 01:46:03;;;;;;;;;;;;;;;-140.72;100.00;52660.75;4962959;28;19946;-71
2022/06/01 01:48:28;;;;;;;;;;;;;;;-140.72;100.00;52670.88;4959123;29;19919;-71
2022/06/01 01:50:54;;;;;;;;;;;;;;;-140.72;100.00;52618.13;4958434;28;19923;-71
2022/06/01 01:53:19;;;;;;;;;;;;;;;-140.72;100.00;52630.31;4958080;29;19930;-71
2022/06/01 01:55:50;;;;;;;;;;;;;;;-140.72;100.00;52642.47;4959180;29;20064;-71
2022/06/01 01:58:42;;;;;;;;;;;;;;;-140.72;100.00;52681.03;4964551;29;19919;-71
2022/06/01 02:01:11;;;;;;;;;;;;;;;-140.72;100.00;52632.34;4959683;28;19942;-71
2022/06/01 02:03:43;;;;;;;;;;;;;;;-140.72;100.00;52660.75;4960068;29;19973;-71
2022/06/01 02:06:14;;;;;;;;;;;;;;;-140.72;100.00;52640.44;4957557;29;19918;-71
2022/06/01 02:08:46;;;;;;;;;;;;;;;-140.72;100.00;52648.56;4950656;29;19919;-71
2022/06/01 02:14:01;;;;;;;;;;;;;;;-140.72;100.00;52620.16;4952614;28;19955;-71
2022/06/01 02:16:28;;;;;;;;;;;;;;;-140.72;100.00;52634.38;4944176;29;19999;-72
2022/06/01 02:18:55;;;;;;;;;;;;;;;-140.72;100.00;52666.84;4958450;29;20318;-71
2022/06/01 02:21:24;;;;;;;;;;;;;;;-140.72;100.00;52642.47;4959185;28;19919;-71
2022/06/01 02:23:49;;;;;;;;;;;;;;;-140.72;100.00;52634.38;4950383;29;19922;-71
2022/06/01 02:26:15;;;;;;;;;;;;;;;-140.72;100.00;52644.50;4945633;29;20023;-71
2022/06/01 02:28:42;;;;;;;;;;;;;;;-140.72;100.00;52660.75;4954435;28;19919;-71
2022/06/01 02:31:08;;;;;;;;;;;;;;;-140.72;100.00;52650.59;4945919;29;20266;-71
2022/06/01 02:33:59;;;;;;;;;;;;;;;-140.72;100.00;52622.19;4976468;23;20372;-87
2022/06/01 02:39:40;;;;;;;;;;;;;;;-140.72;100.00;52603.94;4957917;28;19950;-86
2022/06/01 02:55:57;;;;;;;;;;;;;;;-140.72;100.00;52656.69;5124552;23;19927;-68
2022/06/01 02:58:22;;;;;;;;;;;;;;;-140.72;100.00;52634.38;4947835;28;19925;-69
2022/06/01 03:00:48;;;;;;;;;;;;;;;-140.72;100.00;52658.72;4968586;28;19922;-68
2022/06/01 03:03:13;;;;;;;;;;;;;;;-140.72;100.00;52662.78;4964691;28;19973;-68
2022/06/01 03:05:39;;;;;;;;;;;;;;;-140.72;100.00;52646.53;4955966;28;19918;-68
2022/06/01 03:08:05;;;;;;;;;;;;;;;-140.72;100.00;52664.81;4962409;28;19925;-68
2022/06/01 03:10:30;;;;;;;;;;;;;;;-140.72;100.00;52683.06;4944653;28;19918;-68
2022/06/01 03:12:56;;;;;;;;;;;;;;;-140.72;100.00;52683.06;4947931;28;19922;-68
2022/06/01 03:15:22;;;;;;;;;;;;;;;-140.72;100.00;52654.66;4943721;28;20001;-68
2022/06/01 03:17:47;;;;;;;;;;;;;;;-140.72;100.00;52666.84;4946682;28;19918;-68
2022/06/01 03:20:15;;;;;;;;;;;;;;;-140.72;100.00;52624.22;4952407;28;19919;-68
2022/06/01 03:22:41;;;;;;;;;;;;;;;-140.72;100.00;52695.25;4950769;28;19919;-68
2022/06/01 03:25:08;;;;;;;;;;;;;;;-140.72;100.00;52705.38;4966039;28;19945;-68
2022/06/01 03:27:34;;;;;;;;;;;;;;;-140.72;100.00;52660.75;4949003;28;19919;-68
2022/06/01 03:30:00;;;;;;;;;;;;;;;-140.72;100.00;52668.84;4967889;28;19918;-69
2022/06/01 03:32:25;;;;;;;;;;;;;;;-140.72;100.00;52715.53;4965279;28;19922;-69
2022/06/01 03:34:50;;;;;;;;;;;;;;;-140.72;100.00;52681.03;4954717;28;19918;-69
2022/06/01 03:37:15;;;;;;;;;;;;;;;-140.72;100.00;52683.06;4947903;28;20292;-68
2022/06/01 03:39:41;;;;;;;;;;;;;;;-140.72;100.00;52666.84;4967063;28;19918;-69
2022/06/01 03:42:06;;;;;;;;;;;;;;;-140.72;100.00;52674.94;4948200;28;19928;-68
2022/06/01 03:47:15;;;;;;;;;;;;;;;-140.72;100.00;52674.94;4971083;28;20433;-68
2022/06/01 03:49:42;;;;;;;;;;;;;;;-140.72;100.00;52679.00;4968719;28;19918;-68
2022/06/01 03:52:08;;;;;;;;;;;;;;;-140.72;100.00;52699.31;4952365;28;19926;-68
2022/06/01 03:54:33;;;;;;;;;;;;;;;-140.72;100.00;52674.94;4961508;28;19922;-68
2022/06/01 03:56:58;;;;;;;;;;;;;;;-140.72;100.00;52715.53;4958003;28;20377;-68
2022/06/01 03:59:24;;;;;;;;;;;;;;;-140.72;100.00;52674.94;4961764;28;19933;-67
2022/06/01 04:01:49;;;;;;;;;;;;;;;-140.72;100.00;52729.75;4963836;28;19918;-68
2022/06/01 04:04:14;;;;;;;;;;;;;;;-140.72;100.00;52705.38;4966300;28;19946;-69
2022/06/01 04:06:40;;;;;;;;;;;;;;;-140.72;100.00;52658.72;4973862;28;19965;-68
2022/06/01 04:09:05;;;;;;;;;;;;;;;-140.72;100.00;52676.97;4965473;28;20378;-68
2022/06/01 04:11:30;;;;;;;;;;;;;;;-140.72;100.00;52707.41;4952754;28;19978;-68
2022/06/01 04:13:56;;;;;;;;;;;;;;;-140.72;100.00;52674.94;4947856;28;19953;-72
2022/06/01 04:16:21;;;;;;;;;;;;;;;-140.72;100.00;52687.13;4961352;28;20012;-68
2022/06/01 04:18:46;;;;;;;;;;;;;;;-140.72;100.00;52640.44;4958890;28;19918;-69
2022/06/01 04:21:12;;;;;;;;;;;;;;;-140.72;100.00;52709.44;4939419;29;19919;-67
2022/06/01 04:23:37;;;;;;;;;;;;;;;-140.72;100.00;52674.94;4942564;28;19926;-68
2022/06/01 04:26:02;;;;;;;;;;;;;;;-140.72;100.00;52699.31;4954821;29;19997;-68
2022/06/01 04:28:28;;;;;;;;;;;;;;;-140.72;100.00;52676.97;4942672;28;19922;-69
2022/06/01 04:30:53;;;;;;;;;;;;;;;-140.72;100.00;52703.34;4944963;28;20305;-69
2022/06/01 04:33:18;;;;;;;;;;;;;;;-140.72;100.00;52658.72;4959880;28;19930;-70
2022/06/01 04:35:44;;;;;;;;;;;;;;;-140.72;100.00;52648.56;4943264;28;19918;-71
2022/06/01 04:38:13;;;;;;;;;;;;;;;-140.72;100.00;52642.47;4958321;28;19926;-68
2022/06/01 04:40:42;;;;;;;;;;;;;;;-140.72;100.00;52662.78;4980887;28;19974;-69
2022/06/01 04:43:07;;;;;;;;;;;;;;;-140.72;100.00;52646.53;4958543;28;20362;-68
2022/06/01 04:45:32;;;;;;;;;;;;;;;-140.72;100.00;52658.72;4965464;28;19976;-68
2022/06/01 04:47:58;;;;;;;;;;;;;;;-140.72;100.00;52620.16;4978800;28;20361;-68
2022/06/01 04:50:23;;;;;;;;;;;;;;;-140.72;100.00;52679.00;4963404;28;19918;-68
2022/06/01 04:52:48;;;;;;;;;;;;;;;-140.72;100.00;52642.47;4961271;28;19926;-68
2022/06/01 04:55:13;;;;;;;;;;;;;;;-140.72;100.00;52656.69;4956853;28;19937;-68
2022/06/01 04:57:39;;;;;;;;;;;;;;;-140.72;100.00;52599.88;4960654;28;19922;-68
2022/06/01 05:00:05;;;;;;;;;;;;;;;-140.72;100.00;52638.41;4954493;28;19922;-67
2022/06/01 05:02:31;;;;;;;;;;;;;;;-140.72;100.00;52656.69;4979971;28;19918;-68
2022/06/01 05:04:56;;;;;;;;;;;;;;;-140.72;100.00;52638.41;4961542;28;19929;-68
2022/06/01 05:07:21;;;;;;;;;;;;;;;-140.72;100.00;52674.94;4969267;28;19988;-69
2022/06/01 05:09:46;;;;;;;;;;;;;;;-140.72;100.00;52601.91;4976930;28;19930;-69
2022/06/01 05:12:11;;;;;;;;;;;;;;;-140.72;100.00;52640.44;4969423;28;19918;-69
2022/06/01 05:14:37;;;;;;;;;;;;;;;-140.72;100.00;52644.50;4964450;28;19918;-68
2022/06/01 05:17:02;;;;;;;;;;;;;;;-140.72;100.00;52670.88;4972175;28;19923;-69
2022/06/01 05:19:27;;;;;;;;;;;;;;;-140.72;100.00;52652.63;4968417;28;19926;-68
2022/06/01 05:21:53;;;;;;;;;;;;;;;-140.72;100.00;52636.38;4970041;28;19926;-68
2022/06/01 05:24:18;;;;;;;;;;;;;;;-140.72;100.00;52672.91;4961026;28;19945;-69
2022/06/01 05:26:43;;;;;;;;;;;;;;;-140.72;100.00;52656.69;4960534;28;19918;-68
2022/06/01 05:29:08;;;;;;;;;;;;;;;-140.72;100.00;52620.16;4978319;28;19926;-68
2022/06/01 05:31:34;;;;;;;;;;;;;;;-140.72;100.00;52589.72;4977521;28;19929;-68
2022/06/01 05:33:59;;;;;;;;;;;;;;;-140.72;100.00;52652.63;4959582;28;19926;-68
2022/06/01 05:36:24;;;;;;;;;;;;;;;-140.72;100.00;52597.84;4958662;28;19919;-69
2022/06/01 05:38:50;;;;;;;;;;;;;;;-140.72;100.00;52610.00;4947678;28;20382;-68
2022/06/01 05:41:16;;;;;;;;;;;;;;;-140.72;100.00;52620.16;4977067;28;20388;-69
2022/06/01 05:43:41;;;;;;;;;;;;;;;-140.72;100.00;52589.72;4961430;28;19984;-68
2022/06/01 05:46:06;;;;;;;;;;;;;;;-140.72;100.00;52601.91;4967199;28;19929;-69
2022/06/01 05:48:32;;;;;;;;;;;;;;;-140.72;100.00;52577.53;4947649;28;19929;-68
2022/06/01 05:50:57;;;;;;;;;;;;;;;-140.72;100.00;52612.03;4969730;28;20013;-68
2022/06/01 05:53:22;;;;;;;;;;;;;;;-140.72;100.00;52561.31;4954565;28;19965;-68
2022/06/01 05:55:48;;;;;;;;;;;;;;;-140.72;100.00;52605.94;4967671;28;19922;-69
2022/06/01 05:58:18;;;;;;;;;;;;;;;-140.72;100.00;52612.03;4973849;28;20179;-69
2022/06/01 06:00:44;;;;;;;;;;;;;;;-140.72;100.00;52551.16;4965448;28;19926;-68
2022/06/01 06:03:10;;;;;;;;;;;;;;;-140.72;100.00;52593.78;4972523;28;19926;-69
2022/06/01 06:08:19;;;;;;;;;;;;;;;-140.72;100.00;52605.94;4961954;28;19929;-68
2022/06/01 06:10:44;;;;;;;;;;;;;;;-140.72;100.00;52573.50;4967195;28;19926;-71
2022/06/01 06:13:09;;;;;;;;;;;;;;;-140.72;100.00;52583.63;4954707;28;20377;-72
2022/06/01 06:15:35;;;;;;;;;;;;;;;-140.72;100.00;52589.72;4975032;28;19936;-70
2022/06/01 06:18:00;;;;;;;;;;;;;;;-140.72;100.00;52589.72;4976875;28;19922;-70
2022/06/01 06:20:25;;;;;;;;;;;;;;;-140.72;100.00;52577.53;4961177;28;19918;-71
2022/06/01 06:22:50;;;;;;;;;;;;;;;-140.72;100.00;52573.50;4979340;28;19923;-70
2022/06/01 06:25:16;;;;;;;;;;;;;;;-140.72;100.00;52591.75;4948078;28;19930;-70
2022/06/01 06:27:41;;;;;;;;;;;;;;;-140.72;100.00;52589.72;4967702;28;19954;-70
2022/06/01 06:30:07;;;;;;;;;;;;;;;-140.72;100.00;52555.22;4966539;28;19994;-71
2022/06/01 06:32:32;;;;;;;;;;;;;;;-140.72;100.00;52569.44;4947230;28;20271;-71
2022/06/01 06:34:57;;;;;;;;;;;;;;;-140.72;100.00;52567.41;4971367;28;19918;-71
2022/06/01 06:37:22;;;;;;;;;;;;;;;-140.72;100.00;52532.91;4964619;28;19915;-71
2022/06/01 06:39:47;;;;;;;;;;;;;;;-140.72;100.00;52545.06;4969243;28;20032;-71
2022/06/01 06:42:13;;;;;;;;;;;;;;;-140.72;100.00;52545.06;4969825;28;19918;-71
2022/06/01 06:44:38;;;;;;;;;;;;;;;-140.72;100.00;52518.69;4967448;28;20477;-70
2022/06/01 06:47:04;;;;;;;;;;;;;;;-140.72;100.00;52561.31;4976282;28;19994;-72
2022/06/01 06:49:29;;;;;;;;;;;;;;;-140.72;100.00;52557.25;4962163;28;19918;-73
2022/06/01 06:51:57;;;;;;;;;;;;;;;-140.72;100.00;52575.50;4965803;28;19980;-71
2022/06/01 06:54:22;;;;;;;;;;;;;;;-140.72;100.00;52573.50;4984892;28;19952;-70
2022/06/01 06:56:47;;;;;;;;;;;;;;;-140.72;100.00;52559.28;4984779;28;20395;-70
2022/06/01 06:59:16;;;;;;;;;;;;;;;-140.72;100.00;52534.94;4967206;28;20305;-70
2022/06/01 07:01:50;;;;;;;;;;;;;;;-140.72;100.00;52573.50;4980341;28;19986;-71
2022/06/01 07:04:17;;;;;;;;;;;;;;;-140.72;100.00;52528.84;4958755;28;19918;-69
2022/06/01 07:06:43;;;;;;;;;;;;;;;-140.72;100.00;52547.09;4985129;28;19941;-69
2022/06/01 07:09:09;;;;;;;;;;;;;;;-140.72;100.00;52573.50;4981426;28;19918;-70
2022/06/01 07:11:35;;;;;;;;;;;;;;;-140.72;100.00;52541.03;4982510;28;19922;-69
2022/06/01 07:14:00;;;;;;;;;;;;;;;-140.72;100.00;52557.25;4982735;28;19929;-69
2022/06/01 07:16:30;;;;;;;;;;;;;;;-140.72;100.00;52553.19;4982204;28;19925;-69
2022/06/01 07:18:56;;;;;;;;;;;;;;;-140.72;100.00;52555.22;4964829;28;19918;-69
2022/06/01 07:21:22;;;;;;;;;;;;;;;-140.72;100.00;52553.19;4981832;28;19926;-70
2022/06/01 07:23:48;;;;;;;;;;;;;;;-140.72;100.00;52545.06;4963352;28;19940;-69
2022/06/01 07:26:24;;;;;;;;;;;;;;;-140.72;100.00;52520.72;4982549;28;19949;-69
2022/06/01 07:28:49;;;;;;;;;;;;;;;-140.72;100.00;52541.03;4964913;28;19918;-69
2022/06/01 07:31:15;;;;;;;;;;;;;;;-140.72;100.00;52565.38;4982006;28;20061;-69
2022/06/01 07:33:41;;;;;;;;;;;;;;;-140.72;100.00;52512.59;4981793;28;19941;-69
2022/06/01 07:36:07;;;;;;;;;;;;;;;-140.72;100.00;52520.72;4985275;28;19941;-72
2022/06/01 07:44:10;;;;;;;;;;;;;;;-140.72;100.00;52516.66;4976895;28;19929;-70
2022/06/01 07:46:36;;;;;;;;;;;;;;;-140.72;100.00;52559.28;4960392;28;19919;-70
2022/06/01 07:49:01;;;;;;;;;;;;;;;-140.72;100.00;52543.03;4981575;28;19964;-70
2022/06/01 07:51:27;;;;;;;;;;;;;;;-140.72;100.00;52543.03;4978959;28;19933;-70
2022/06/01 07:53:52;;;;;;;;;;;;;;;-140.72;100.00;52510.59;4984316;28;19934;-70
2022/06/01 07:56:17;;;;;;;;;;;;;;;-140.72;100.00;52563.34;4981216;28;19926;-70
2022/06/01 07:58:43;;;;;;;;;;;;;;;-140.72;100.00;52553.19;4965651;28;19918;-71
2022/06/01 08:01:09;;;;;;;;;;;;;;;-140.72;100.00;52571.47;4981322;28;19918;-70
2022/06/01 08:03:35;;;;;;;;;;;;;;;-140.72;100.00;52565.38;4965975;28;19999;-71
2022/06/01 08:06:01;;;;;;;;;;;;;;;-140.72;100.00;52555.22;4981905;28;19918;-70
2022/06/01 08:08:26;;;;;;;;;;;;;;;-140.72;100.00;52496.38;4960682;28;19949;-70
2022/06/01 08:10:51;;;;;;;;;;;;;;;-140.72;100.00;52500.44;4982222;28;19965;-70
2022/06/01 08:13:17;;;;;;;;;;;;;;;-140.72;100.00;52496.38;4969747;28;19950;-70
2022/06/01 08:15:44;;;;;;;;;;;;;;;-140.72;100.00;52490.28;4988706;28;19925;-70
2022/06/01 08:18:10;;;;;;;;;;;;;;;-140.72;100.00;52555.22;4986921;28;19919;-71
2022/06/01 08:20:36;;;;;;;;;;;;;;;-140.72;100.00;52551.16;4989665;28;19918;-70
2022/06/01 08:35:57;;;;;;;;;;;;;;;-140.72;100.00;52528.84;5915394;23;19934;-69
2022/06/01 08:38:22;;;;;;;;;;;;;;;-140.72;100.00;52474.06;4984158;28;19937;-68
2022/06/01 08:40:56;;;;;;;;;;;;;;;-140.72;100.00;52451.72;4983769;28;19913;-68
2022/06/01 08:43:24;;;;;;;;;;;;;;;-140.72;100.00;52467.97;4974776;28;19918;-67
2022/06/01 08:45:51;;;;;;;;;;;;;;;-140.72;100.00;52508.56;4988630;28;19914;-68
2022/06/01 08:48:18;;;;;;;;;;;;;;;-140.72;100.00;52449.72;4988122;28;19969;-68
2022/06/01 08:50:43;;;;;;;;;;;;;;;-140.72;100.00;52494.34;4993410;28;19914;-68
2022/06/01 08:53:09;;;;;;;;;;;;;;;-140.72;100.00;52451.72;4990182;28;19929;-68
2022/06/01 08:55:43;;;;;;;;;;;;;;;-140.72;100.00;52470.00;4996454;28;20005;-67
2022/06/01 08:58:11;;;;;;;;;;;;;;;-140.72;100.00;52415.22;4971576;28;19958;-67
2022/06/01 09:00:40;;;;;;;;;;;;;;;-140.72;100.00;52478.13;4970428;28;19922;-68
2022/06/01 09:03:09;;;;;;;;;;;;;;;-140.72;100.00;52480.16;4985731;28;19929;-68
2022/06/01 09:05:40;;;;;;;;;;;;;;;-140.72;100.00;52405.06;4987763;28;19953;-67
2022/06/01 09:08:09;;;;;;;;;;;;;;;-140.72;100.00;52390.84;4987456;28;19922;-67
2022/06/01 09:10:53;;;;;;;;;;;;;;;-140.72;100.00;52451.72;4988671;28;19988;-68
2022/06/01 09:13:24;;;;;;;;;;;;;;;-140.72;100.00;52492.31;4991513;28;20365;-68
2022/06/01 09:16:08;;;;;;;;;;;;;;;-140.72;100.00;52526.81;4974966;28;19917;-68
2022/06/01 09:18:39;;;;;;;;;;;;;;;-140.72;100.00;52455.78;4991086;28;19921;-68
2022/06/01 09:23:49;;;;;;;;;;;;;;;-140.72;100.00;52419.28;4995661;28;19924;-68
2022/06/01 09:26:25;;;;;;;;;;;;;;;-140.72;100.00;52449.72;4973131;28;20013;-68
2022/06/01 09:28:52;;;;;;;;;;;;;;;-140.72;100.00;52415.22;4991851;28;20412;-68
2022/06/01 09:31:22;;;;;;;;;;;;;;;-140.72;100.00;52421.28;4984556;28;20372;-68
2022/06/01 09:33:48;;;;;;;;;;;;;;;-140.72;100.00;52459.84;4989513;28;19917;-68
2022/06/01 09:36:24;;;;;;;;;;;;;;;-140.72;100.00;52403.03;4987185;28;20069;-68
2022/06/01 09:38:51;;;;;;;;;;;;;;;-140.72;100.00;52445.66;4968602;28;19925;-68
2022/06/01 09:41:19;;;;;;;;;;;;;;;-140.72;100.00;52439.56;4986608;28;19918;-68
2022/06/01 09:43:49;;;;;;;;;;;;;;;-140.72;100.00;52388.84;4990779;28;19953;-68
2022/06/01 09:46:23;;;;;;;;;;;;;;;-140.72;100.00;52332.03;4984344;28;19929;-68
2022/06/01 09:48:48;;;;;;;;;;;;;;;-140.72;100.00;52323.91;4992837;28;20360;-67
2022/06/01 09:51:16;;;;;;;;;;;;;;;-140.72;100.00;52301.59;4969391;28;19961;-68
2022/06/01 09:53:43;;;;;;;;;;;;;;;-140.72;100.00;52289.41;4990679;28;19918;-68
2022/06/01 09:56:09;;;;;;;;;;;;;;;-140.72;100.00;52238.69;4970441;28;19929;-68
2022/06/01 10:06:55;;;;;;;;;;;;;;;-140.72;100.00;52289.41;4984158;28;19925;-68
2022/06/01 10:09:25;;;;;;;;;;;;;;;-140.72;100.00;52370.56;4974332;28;19918;-68
2022/06/01 10:11:51;;;;;;;;;;;;;;;-140.72;100.00;52315.78;4970046;28;19924;-68
2022/06/01 10:14:18;;;;;;;;;;;;;;;-140.72;100.00;52261.00;4991109;28;19918;-68
2022/06/01 10:16:46;;;;;;;;;;;;;;;-140.72;100.00;52273.19;4972682;28;19972;-68
2022/06/01 10:19:14;;;;;;;;;;;;;;;-140.72;100.00;52277.22;4973086;28;19929;-67
2022/06/01 10:21:58;;;;;;;;;;;;;;;-140.72;100.00;52252.88;4986617;28;19921;-68
2022/06/01 10:24:31;;;;;;;;;;;;;;;-140.72;100.00;52228.53;4990539;28;19922;-69
2022/06/01 10:26:59;;;;;;;;;;;;;;;-140.72;100.00;52325.94;4992271;28;20040;-68
2022/06/01 10:29:36;;;;;;;;;;;;;;;-140.72;100.00;52350.28;4989698;28;19929;-68
2022/06/01 10:32:04;;;;;;;;;;;;;;;-140.72;100.00;52313.75;4987714;28;19973;-68
2022/06/01 10:34:37;;;;;;;;;;;;;;;-140.72;100.00;52325.94;4986451;28;19918;-68
2022/06/01 10:37:21;;;;;;;;;;;;;;;-140.72;100.00;52427.38;4976731;28;19926;-68
2022/06/01 10:39:52;;;;;;;;;;;;;;;-140.72;100.00;52423.31;4976060;28;19918;-68
2022/06/01 10:42:21;;;;;;;;;;;;;;;-140.72;100.00;52305.63;4982216;28;19918;-68
2022/06/01 10:45:07;;;;;;;;;;;;;;;-140.72;100.00;52366.50;4986835;28;20009;-68
2022/06/01 10:47:33;;;;;;;;;;;;;;;-140.72;100.00;52317.81;4975710;28;19922;-68
2022/06/01 10:50:04;;;;;;;;;;;;;;;-140.72;100.00;52287.38;4988884;28;19924;-68
2022/06/01 10:52:29;;;;;;;;;;;;;;;-140.72;100.00;52303.59;4981381;28;19918;-68
2022/06/01 10:55:07;;;;;;;;;;;;;;;-140.72;100.00;52281.28;4988009;28;19922;-71
2022/06/01 10:57:35;;;;;;;;;;;;;;;-140.72;100.00;52273.19;4997122;28;19922;-72
2022/06/01 11:00:00;;;;;;;;;;;;;;;-140.72;100.00;52362.44;5000560;28;19925;-71
2022/06/01 11:02:44;;;;;;;;;;;;;;;-140.72;100.00;52386.81;5004686;28;19917;-71
2022/06/01 11:05:28;;;;;;;;;;;;;;;-140.72;100.00;52356.38;4994780;28;19981;-70
2022/06/01 11:08:12;;;;;;;;;;;;;;;-140.72;100.00;52394.91;4997299;28;19959;-71
2022/06/01 11:10:47;;;;;;;;;;;;;;;-140.72;100.00;52368.53;4997349;28;19929;-71
2022/06/01 11:13:31;;;;;;;;;;;;;;;-140.72;100.00;52277.22;4991170;28;19922;-68
2022/06/01 11:15:57;;;;;;;;;;;;;;;-140.72;100.00;52287.38;4992686;28;19926;-68
2022/06/01 11:18:29;;;;;;;;;;;;;;;-140.72;100.00;52208.25;4999115;28;19932;-73
2022/06/01 11:20:57;;;;;;;;;;;;;;;-140.72;100.00;52179.84;4983661;28;19956;-69
2022/06/01 11:23:25;;;;;;;;;;;;;;;-140.72;100.00;52163.59;4982579;28;19930;-68
2022/06/01 11:26:05;;;;;;;;;;;;;;;-140.72;100.00;52224.47;4981531;28;19926;-68
2022/06/01 11:28:33;;;;;;;;;;;;;;;-140.72;100.00;52289.41;4978322;28;19926;-69
2022/06/01 11:31:09;;;;;;;;;;;;;;;-140.72;100.00;52206.22;4975865;28;20024;-69
2022/06/01 11:33:48;;;;;;;;;;;;;;;-140.72;100.00;52254.91;4972622;28;19981;-69
2022/06/01 11:36:32;;;;;;;;;;;;;;;-140.72;100.00;52269.13;4976806;28;20331;-68
2022/06/01 11:39:03;;;;;;;;;;;;;;;-140.72;100.00;52250.84;4960040;28;19930;-69
2022/06/01 11:41:31;;;;;;;;;;;;;;;-140.72;100.00;52332.03;4978602;28;19926;-70
2022/06/01 11:44:00;;;;;;;;;;;;;;;-140.72;100.00;52275.19;4982317;28;20313;-72
2022/06/01 11:46:37;;;;;;;;;;;;;;;-140.72;100.00;52386.81;4982136;28;20423;-71
2022/06/01 11:49:04;;;;;;;;;;;;;;;-140.72;100.00;52295.50;4979129;28;20020;-69
2022/06/01 11:51:36;;;;;;;;;;;;;;;-140.72;100.00;52340.13;4963676;28;19981;-69
2022/06/01 11:54:05;;;;;;;;;;;;;;;-140.72;100.00;52321.88;4963203;28;19960;-69
2022/06/01 11:56:30;;;;;;;;;;;;;;;-140.72;100.00;52289.41;4974425;28;19930;-69
2022/06/01 11:59:14;;;;;;;;;;;;;;;-140.72;100.00;52301.59;4982728;28;20019;-68
2022/06/01 12:01:48;;;;;;;;;;;;;;;-140.72;100.00;52346.22;4976415;28;20305;-69
2022/06/01 12:04:20;;;;;;;;;;;;;;;-140.72;100.00;52265.06;4969778;28;20606;-67
2022/06/01 12:06:50;;;;;;;;;;;;;;;-140.72;100.00;52261.00;4966526;28;20028;-68
2022/06/01 12:09:25;;;;;;;;;;;;;;;-140.72;100.00;52232.59;4970592;28;20288;-68
2022/06/01 12:11:50;;;;;;;;;;;;;;;-140.72;100.00;52230.56;4974013;28;19918;-68
2022/06/01 12:14:29;;;;;;;;;;;;;;;-140.72;100.00;52252.88;4975769;28;19924;-69
2022/06/01 12:17:13;;;;;;;;;;;;;;;-140.72;100.00;52248.81;4960822;28;19936;-68
2022/06/01 12:19:38;;;;;;;;;;;;;;;-140.72;100.00;52334.03;4974453;28;20296;-70
2022/06/01 12:22:03;;;;;;;;;;;;;;;-140.72;100.00;52386.81;4973654;28;19930;-70
2022/06/01 12:29:59;;;;;;;;;;;;;;;-140.72;100.00;52350.28;4980503;28;19946;-69
2022/06/01 12:32:25;;;;;;;;;;;;;;;-140.72;100.00;52405.06;4980317;28;19922;-70
2022/06/01 12:34:55;;;;;;;;;;;;;;;-140.72;100.00;52370.56;4979328;28;19960;-69
2022/06/01 12:37:22;;;;;;;;;;;;;;;-140.72;100.00;52425.34;4982877;28;20008;-68
2022/06/01 12:39:59;;;;;;;;;;;;;;;-140.72;100.00;52447.69;4965757;28;19929;-68
2022/06/01 12:42:36;;;;;;;;;;;;;;;-140.72;100.00;52309.69;4982716;28;19945;-69
2022/06/01 12:45:03;;;;;;;;;;;;;;;-140.72;100.00;52263.03;4989472;28;19929;-68
2022/06/01 12:47:42;;;;;;;;;;;;;;;-140.72;100.00;52228.53;4974972;28;19918;-69
2022/06/01 12:50:07;;;;;;;;;;;;;;;-140.72;100.00;52187.97;4990009;28;19952;-69
2022/06/01 12:52:33;;;;;;;;;;;;;;;-140.72;100.00;52143.31;4987222;28;19922;-70
2022/06/01 12:55:04;;;;;;;;;;;;;;;-140.72;100.00;52167.66;4990112;28;19917;-69
2022/06/01 12:57:34;;;;;;;;;;;;;;;-140.72;100.00;52206.22;4985923;28;20376;-68
2022/06/01 12:59:59;;;;;;;;;;;;;;;-140.72;100.00;52218.38;4991999;28;19917;-69
2022/06/01 13:02:27;;;;;;;;;;;;;;;-140.72;100.00;52187.97;4988813;28;19937;-69
2022/06/01 13:04:53;;;;;;;;;;;;;;;-140.72;100.00;52147.38;4976755;28;19925;-68
2022/06/01 13:07:19;;;;;;;;;;;;;;;-140.72;100.00;52131.16;4989655;28;20414;-69
2022/06/01 13:09:44;;;;;;;;;;;;;;;-140.72;100.00;52155.50;4992762;28;19965;-69
2022/06/01 13:12:17;;;;;;;;;;;;;;;-140.72;100.00;52204.19;4975795;28;19942;-69
2022/06/01 13:14:44;;;;;;;;;;;;;;;-140.72;100.00;52151.44;4996716;28;19946;-69
2022/06/01 13:17:17;;;;;;;;;;;;;;;-140.72;100.00;52161.56;4991249;28;20570;-69
2022/06/01 13:19:42;;;;;;;;;;;;;;;-140.72;100.00;52200.13;4999393;28;19922;-70
2022/06/01 13:22:11;;;;;;;;;;;;;;;-140.72;100.00;52210.28;4982535;28;19940;-70